createdAt,value
2023-01-18T00:01:46.745Z,97017.72
2023-01-18T00:03:48.802Z,97023.03
2023-01-18T00:05:50.957Z,97032.84
2023-01-18T00:07:53.347Z,97029.06
2023-01-18T00:09:56.713Z,97045.63
2023-01-18T00:11:58.509Z,97026.47
2023-01-18T00:14:02.676Z,97044.50
2023-01-18T00:16:05.933Z,97022.28
2023-01-18T00:18:07.761Z,97032.66
2023-01-18T00:20:11.714Z,97020.72
2023-01-18T00:22:13.452Z,97039.28
2023-01-18T00:24:15.266Z,97040.13
2023-01-18T00:26:17.240Z,97036.06
2023-01-18T00:28:23.029Z,97033.78
2023-01-18T00:30:27.570Z,97039.16
2023-01-18T00:32:29.258Z,97044.84
2023-01-18T00:34:31.631Z,97048.59
2023-01-18T00:36:34.175Z,97037.38
2023-01-18T00:38:35.960Z,97048.31
2023-01-18T00:40:37.666Z,97039.22
2023-01-18T00:42:58.743Z,97041.66
2023-01-18T00:45:01.005Z,97045.19
2023-01-18T00:47:02.809Z,97040.78
2023-01-18T00:49:04.570Z,97060.09
2023-01-18T00:51:10.888Z,97045.03
2023-01-18T00:53:12.614Z,97074.31
2023-01-18T00:55:16.243Z,97065.25
2023-01-18T00:57:18.013Z,97070.31
2023-01-18T00:59:19.736Z,97059.56
2023-01-18T01:01:21.817Z,97056.44
2023-01-18T01:03:23.597Z,97067.34
2023-01-18T01:05:45.863Z,97054.28
2023-01-18T01:07:49.373Z,97062.09
2023-01-18T01:09:51.564Z,97048.47
2023-01-18T01:12:12.912Z,97055.81
2023-01-18T01:14:33.214Z,97057.41
2023-01-18T01:16:53.625Z,97070.63
2023-01-18T01:19:14.804Z,97072.31
2023-01-18T01:21:35.094Z,97065.94
2023-01-18T01:23:55.284Z,97067.22
2023-01-18T01:26:11.102Z,97068.91
2023-01-18T01:28:12.897Z,97067.94
2023-01-18T01:30:14.824Z,97070.78
2023-01-18T01:32:16.604Z,97059.84
2023-01-18T01:34:18.418Z,97043.22
2023-01-18T01:36:25.935Z,97050.91
2023-01-18T01:38:28.479Z,97040.97
2023-01-18T01:40:30.447Z,97038.69
2023-01-18T01:42:32.416Z,97045.09
2023-01-18T01:44:42.635Z,97033.88
2023-01-18T01:46:44.351Z,97038.84
2023-01-18T01:48:48.108Z,97031.88
2023-01-18T01:50:50.026Z,97042.09
2023-01-18T01:52:52.232Z,97050.19
2023-01-18T01:55:02.484Z,97054.69
2023-01-18T01:57:12.482Z,97050.88
2023-01-18T01:59:15.083Z,97046.78
2023-01-18T02:01:16.892Z,97038.69
2023-01-18T02:03:19.351Z,97044.22
2023-01-18T02:05:21.490Z,97047.19
2023-01-18T02:07:26.432Z,97052.72
2023-01-18T02:09:28.175Z,97049.50
2023-01-18T02:11:30.075Z,97050.34
2023-01-18T02:13:32.079Z,97052.63
2023-01-18T02:15:44.851Z,97047.22
2023-01-18T02:18:11.229Z,97052.63
2023-01-18T02:20:40.722Z,97057.75
2023-01-18T02:23:08.549Z,97059.59
2023-01-18T02:25:47.679Z,97068.81
2023-01-18T02:28:07.199Z,97058.31
2023-01-18T02:30:08.995Z,97051.50
2023-01-18T02:32:22.763Z,97049.22
2023-01-18T02:34:47.512Z,97057.44
2023-01-18T02:37:16.914Z,97059.75
2023-01-18T02:39:38.354Z,97068.56
2023-01-18T02:42:06.954Z,97069.41
2023-01-18T02:44:27.496Z,97066.00
2023-01-18T02:46:35.528Z,97084.06
2023-01-18T02:48:43.310Z,97079.91
2023-01-18T02:50:45.134Z,97090.28
2023-01-18T02:52:47.401Z,97092.41
2023-01-18T02:54:49.279Z,97088.41
2023-01-18T02:56:53.845Z,97077.78
2023-01-18T02:59:13.230Z,97075.78
2023-01-18T03:01:30.864Z,97088.56
2023-01-18T03:03:33.780Z,97091.72
2023-01-18T03:05:37.242Z,97097.38
2023-01-18T03:07:50.834Z,97095.78
2023-01-18T03:09:53.795Z,97096.91
2023-01-18T03:12:08.757Z,97097.06
2023-01-18T03:14:32.244Z,97087.84
2023-01-18T03:16:58.286Z,97092.94
2023-01-18T03:19:28.301Z,97097.75
2023-01-18T03:21:35.811Z,97081.44
2023-01-18T03:23:42.492Z,97077.19
2023-01-18T03:25:48.062Z,97080.72
2023-01-18T03:28:11.691Z,97078.75
2023-01-18T03:30:33.004Z,97079.03
2023-01-18T03:32:54.045Z,97083.59
2023-01-18T03:35:08.063Z,97083.44
2023-01-18T03:37:14.238Z,97076.22
2023-01-18T03:39:28.321Z,97073.78
2023-01-18T03:41:33.755Z,97065.25
2023-01-18T03:43:37.891Z,97070.25
2023-01-18T03:45:45.028Z,97064.56
2023-01-18T03:47:50.436Z,97060.59
2023-01-18T03:49:52.272Z,97056.19
2023-01-18T03:52:06.185Z,97048.97
2023-01-18T03:54:20.984Z,97054.50
2023-01-18T03:56:39.136Z,97052.94
2023-01-18T03:58:42.277Z,97050.78
2023-01-18T04:00:44.503Z,97057.06
2023-01-18T04:02:48.951Z,97058.63
2023-01-18T04:04:55.224Z,97051.06
2023-01-18T04:06:58.045Z,97065.16
2023-01-18T04:09:01.126Z,97057.34
2023-01-18T04:11:02.869Z,97043.53
2023-01-18T04:13:04.736Z,97038.44
2023-01-18T04:15:07.089Z,97051.09
2023-01-18T04:17:08.907Z,97069.84
2023-01-18T04:19:10.877Z,97064.00
2023-01-18T04:21:12.672Z,97038.59
2023-01-18T04:23:14.981Z,97051.94
2023-01-18T04:25:16.800Z,97051.22
2023-01-18T04:27:18.568Z,97042.16
2023-01-18T04:29:20.340Z,97041.88
2023-01-18T04:31:22.596Z,97048.53
2023-01-18T04:33:26.898Z,97052.06
2023-01-18T04:35:28.753Z,97060.59
2023-01-18T04:37:31.229Z,97064.88
2023-01-18T04:39:32.988Z,97068.72
2023-01-18T04:41:35.020Z,97068.28
2023-01-18T04:43:36.752Z,97071.69
2023-01-18T04:45:38.519Z,97060.63
2023-01-18T04:47:40.200Z,97060.34
2023-01-18T04:49:41.939Z,97065.59
2023-01-18T04:51:45.317Z,97064.47
2023-01-18T04:53:47.834Z,97065.19
2023-01-18T04:55:49.787Z,97062.31
2023-01-18T04:57:59.304Z,97057.34
2023-01-18T05:00:02.287Z,97049.94
2023-01-18T05:02:04.540Z,97045.25
2023-01-18T05:04:06.340Z,97047.84
2023-01-18T05:06:10.635Z,97031.63
2023-01-18T05:08:12.436Z,97024.50
2023-01-18T05:10:14.501Z,97033.06
2023-01-18T05:12:16.289Z,97028.22
2023-01-18T05:14:18.121Z,97030.50
2023-01-18T05:16:22.469Z,97031.22
2023-01-18T05:18:24.599Z,97033.19
2023-01-18T05:20:26.399Z,97020.41
2023-01-18T05:22:29.147Z,97009.00
2023-01-18T05:24:30.923Z,97009.59
2023-01-18T05:26:32.740Z,97003.44
2023-01-18T05:28:35.011Z,97015.38
2023-01-18T05:30:42.225Z,97020.53
2023-01-18T05:32:43.883Z,97041.97
2023-01-18T05:34:45.712Z,97042.28
2023-01-18T05:36:48.352Z,97051.94
2023-01-18T05:38:50.251Z,97061.88
2023-01-18T05:40:54.228Z,97060.50
2023-01-18T05:42:56.058Z,97064.19
2023-01-18T05:44:58.196Z,97063.63
2023-01-18T05:46:59.923Z,97073.41
2023-01-18T05:49:01.862Z,97071.59
2023-01-18T05:51:11.266Z,97066.75
2023-01-18T05:53:16.987Z,97075.84
2023-01-18T05:55:19.154Z,97064.31
2023-01-18T05:57:21.051Z,97067.88
2023-01-18T05:59:22.814Z,97070.00
2023-01-18T06:01:25.144Z,97069.56
2023-01-18T06:03:26.960Z,97073.00
2023-01-18T06:05:29.062Z,97083.38
2023-01-18T06:07:30.813Z,97086.50
2023-01-18T06:09:32.525Z,97085.66
2023-01-18T06:11:34.331Z,97085.34
2023-01-18T06:13:36.403Z,97075.97
2023-01-18T06:15:38.267Z,97086.78
2023-01-18T06:17:40.506Z,97082.81
2023-01-18T06:19:42.244Z,97074.00
2023-01-18T06:21:43.989Z,97078.09
2023-01-18T06:23:46.107Z,97080.13
2023-01-18T06:25:47.811Z,97086.78
2023-01-18T06:27:49.572Z,97091.06
2023-01-18T06:29:51.353Z,97099.84
2023-01-18T06:31:53.202Z,97107.94
2023-01-18T06:33:55.033Z,97109.38
2023-01-18T06:35:56.790Z,97107.09
2023-01-18T06:37:58.992Z,97105.41
2023-01-18T06:40:02.782Z,97106.25
2023-01-18T06:42:06.116Z,97114.19
2023-01-18T06:44:08.019Z,97104.25
2023-01-18T06:46:11.898Z,97108.22
2023-01-18T06:48:15.880Z,97141.38
2023-01-18T06:50:17.954Z,97110.66
2023-01-18T06:52:19.956Z,97114.91
2023-01-18T06:54:21.999Z,97120.19
2023-01-18T06:56:25.203Z,97109.38
2023-01-18T06:58:28.351Z,97122.31
2023-01-18T07:00:30.405Z,97116.06
2023-01-18T07:02:36.658Z,97133.22
2023-01-18T07:04:44.425Z,97120.03
2023-01-18T07:06:46.762Z,97124.72
2023-01-18T07:08:49.726Z,97121.72
2023-01-18T07:10:55.618Z,97128.25
2023-01-18T07:12:58.168Z,97115.19
2023-01-18T07:15:04.890Z,97119.31
2023-01-18T07:17:11.886Z,97115.47
2023-01-18T07:19:15.289Z,97117.03
2023-01-18T07:21:19.404Z,97111.50
2023-01-18T07:23:21.883Z,97105.81
2023-01-18T07:25:23.824Z,97110.22
2023-01-18T07:27:27.028Z,97108.09
2023-01-18T07:29:29.109Z,97119.72
2023-01-18T07:31:31.508Z,97144.03
2023-01-18T07:33:34.921Z,97123.31
2023-01-18T07:35:37.240Z,97131.53
2023-01-18T07:37:42.506Z,97122.00
2023-01-18T07:39:44.472Z,97166.09
2023-01-18T07:41:47.071Z,97154.41
2023-01-18T07:43:54.229Z,97152.16
2023-01-18T07:45:58.263Z,97165.34
2023-01-18T07:48:00.930Z,97162.34
2023-01-18T07:50:02.928Z,97176.25
2023-01-18T07:52:05.172Z,97179.66
2023-01-18T07:54:07.422Z,97167.88
2023-01-18T07:56:13.886Z,97168.16
2023-01-18T07:58:17.100Z,97166.84
2023-01-18T08:00:19.891Z,97173.66
2023-01-18T08:02:21.916Z,97173.25
2023-01-18T08:04:25.070Z,97150.25
2023-01-18T08:06:27.583Z,97137.59
2023-01-18T08:08:32.576Z,97147.53
2023-01-18T08:10:37.617Z,97147.25
2023-01-18T08:12:39.602Z,97160.50
2023-01-18T08:14:41.513Z,97150.28
2023-01-18T08:16:43.744Z,97143.44
2023-01-18T08:18:48.979Z,97152.69
2023-01-18T08:20:51.054Z,97148.56
2023-01-18T08:22:57.800Z,97156.81
2023-01-18T08:24:59.997Z,97150.41
2023-01-18T08:27:02.468Z,97154.69
2023-01-18T08:29:04.592Z,97180.53
2023-01-18T08:31:17.766Z,97170.44
2023-01-18T08:33:19.733Z,97180.72
2023-01-18T08:35:23.749Z,97178.25
2023-01-18T08:37:25.934Z,97183.66
2023-01-18T08:39:28.194Z,97202.00
2023-01-18T08:41:30.780Z,97169.03
2023-01-18T08:43:33.207Z,97172.44
2023-01-18T08:45:35.532Z,97156.66
2023-01-18T08:47:38.181Z,97177.72
2023-01-18T08:49:42.802Z,97169.47
2023-01-18T08:51:45.131Z,97159.25
2023-01-18T08:53:47.793Z,97171.22
2023-01-18T08:55:50.201Z,97170.22
2023-01-18T08:57:56.605Z,97164.25
2023-01-18T08:59:59.073Z,97172.19
2023-01-18T09:02:01.165Z,97168.50
2023-01-18T09:04:03.272Z,97166.94
2023-01-18T09:06:12.528Z,97193.22
2023-01-18T09:08:15.090Z,97393.47
2023-01-18T09:10:17.342Z,97383.44
2023-01-18T09:12:20.007Z,97412.13
2023-01-18T09:14:22.079Z,97414.19
2023-01-18T09:16:24.410Z,97433.63
2023-01-18T09:18:26.563Z,97435.50
2023-01-18T09:20:28.697Z,97423.03
2023-01-18T09:22:30.701Z,97433.97
2023-01-18T09:24:33.131Z,97448.53
2023-01-18T09:26:35.151Z,97452.59
2023-01-18T09:28:37.161Z,97443.91
2023-01-18T09:30:39.695Z,97452.25
2023-01-18T09:32:42.529Z,97445.53
2023-01-18T09:34:46.521Z,97442.94
2023-01-18T09:36:52.920Z,97447.09
2023-01-18T09:38:56.088Z,97451.06
2023-01-18T09:40:59.112Z,97449.31
2023-01-18T09:43:01.317Z,97457.88
2023-01-18T09:45:04.058Z,97465.63
2023-01-18T09:47:25.407Z,97464.88
2023-01-18T09:49:40.837Z,97474.56
2023-01-18T09:52:00.891Z,97478.34
2023-01-18T09:54:28.691Z,97473.44
2023-01-18T09:56:53.915Z,97484.47
2023-01-18T09:59:21.050Z,97503.56
2023-01-18T10:01:27.940Z,97505.03
2023-01-18T10:03:42.136Z,97502.19
2023-01-18T10:06:09.081Z,97487.16
2023-01-18T10:08:16.724Z,97491.94
2023-01-18T10:10:24.887Z,97491.94
2023-01-18T10:12:56.605Z,97509.91
2023-01-18T10:15:17.652Z,97529.53
2023-01-18T10:17:26.342Z,97549.47
2023-01-18T10:19:31.561Z,97573.22
2023-01-18T10:21:56.908Z,97566.47
2023-01-18T10:24:29.232Z,97560.84
2023-01-18T10:26:32.935Z,97558.25
2023-01-18T10:28:53.578Z,97559.50
2023-01-18T10:31:30.056Z,97565.31
2023-01-18T10:33:36.291Z,97576.41
2023-01-18T10:35:45.519Z,97585.56
2023-01-18T10:37:47.961Z,97612.00
2023-01-18T10:40:15.306Z,97616.13
2023-01-18T10:42:34.278Z,97612.56
2023-01-18T10:44:36.256Z,97624.28
2023-01-18T10:46:39.256Z,97635.06
2023-01-18T10:48:46.311Z,97567.75
2023-01-18T10:50:53.342Z,97603.50
2023-01-18T10:52:55.709Z,97613.09
2023-01-18T10:55:03.926Z,97624.69
2023-01-18T10:57:21.877Z,97627.78
2023-01-18T10:59:26.602Z,97645.53
2023-01-18T11:01:33.585Z,97666.69
2023-01-18T11:03:45.484Z,97662.78
2023-01-18T11:05:47.905Z,97648.88
2023-01-18T11:08:12.598Z,97653.50
2023-01-18T11:10:33.004Z,97654.13
2023-01-18T11:12:43.171Z,97668.06
2023-01-18T11:14:45.520Z,97664.63
2023-01-18T11:17:02.875Z,97686.41
2023-01-18T11:19:16.843Z,97681.75
2023-01-18T11:21:19.218Z,97689.59
2023-01-18T11:23:31.317Z,97693.28
2023-01-18T11:25:51.919Z,97710.53
2023-01-18T11:28:02.229Z,97700.59
2023-01-18T11:30:05.344Z,97694.25
2023-01-18T11:32:18.161Z,97697.56
2023-01-18T11:34:33.647Z,97708.88
2023-01-18T11:36:45.601Z,97724.28
2023-01-18T11:38:48.332Z,97730.94
2023-01-18T11:41:03.389Z,97739.34
2023-01-18T11:43:17.653Z,97721.34
2023-01-18T11:45:25.273Z,97730.94
2023-01-18T11:47:57.704Z,97727.00
2023-01-18T11:50:28.579Z,97746.44
2023-01-18T11:52:54.018Z,97751.25
2023-01-18T11:55:01.592Z,97759.97
2023-01-18T11:57:04.769Z,97766.59
2023-01-18T11:59:26.256Z,97779.22
2023-01-18T12:01:33.917Z,97775.19
2023-01-18T12:03:48.658Z,97780.06
2023-01-18T12:06:20.406Z,97794.81
2023-01-18T12:08:46.471Z,97810.59
2023-01-18T12:11:22.489Z,97821.00
2023-01-18T12:13:46.957Z,97829.00
2023-01-18T12:16:04.748Z,97839.66
2023-01-18T12:18:46.542Z,97842.41
2023-01-18T12:21:09.491Z,97834.25
2023-01-18T12:23:55.630Z,97852.78
2023-01-18T12:26:11.753Z,97836.00
2023-01-18T12:28:35.517Z,97842.75
2023-01-18T12:31:03.235Z,97856.69
2023-01-18T12:33:13.213Z,97837.59
2023-01-18T12:35:52.871Z,97841.91
2023-01-18T12:38:15.588Z,97851.34
2023-01-18T12:40:42.420Z,97857.34
2023-01-18T12:42:56.251Z,97876.25
2023-01-18T12:45:12.514Z,97876.72
2023-01-18T12:47:17.550Z,97875.13
2023-01-18T12:49:24.641Z,97874.47
2023-01-18T12:51:32.860Z,97882.56
2023-01-18T12:53:48.806Z,97892.06
2023-01-18T12:55:54.158Z,97898.13
2023-01-18T12:58:00.534Z,97905.00
2023-01-18T13:00:19.202Z,97926.03
2023-01-18T13:02:32.227Z,97924.97
2023-01-18T13:04:46.566Z,97926.03
2023-01-18T13:06:57.282Z,97934.69
2023-01-18T13:09:15.576Z,97938.63
2023-01-18T13:11:27.709Z,97938.47
2023-01-18T13:13:31.098Z,97947.41
2023-01-18T13:15:53.831Z,97949.03
2023-01-18T13:18:15.542Z,97949.34
2023-01-18T13:20:24.810Z,97951.22
2023-01-18T13:22:54.551Z,97955.75
2023-01-18T13:25:18.548Z,97975.34
2023-01-18T13:27:21.919Z,97976.00
2023-01-18T13:29:30.095Z,97981.78
2023-01-18T13:31:32.965Z,97974.25
2023-01-18T13:33:42.263Z,97978.91
2023-01-18T13:35:58.320Z,97982.88
2023-01-18T13:38:11.794Z,97988.63
2023-01-18T13:40:38.466Z,97995.09
2023-01-18T13:42:40.796Z,98005.66
2023-01-18T13:44:46.325Z,98006.28
2023-01-18T13:46:48.794Z,98018.69
2023-01-18T13:48:55.674Z,98019.25
2023-01-18T13:50:57.844Z,98024.31
2023-01-18T13:53:22.113Z,98034.16
2023-01-18T13:55:26.746Z,98053.44
2023-01-18T13:57:31.450Z,98049.13
2023-01-18T13:59:41.013Z,98067.03
2023-01-18T14:01:48.018Z,98058.72
2023-01-18T14:03:52.147Z,98062.28
2023-01-18T14:05:57.326Z,98069.28
2023-01-18T14:08:02.270Z,98063.38
2023-01-18T14:10:08.465Z,98069.16
2023-01-18T14:12:12.193Z,98067.44
2023-01-18T14:14:16.201Z,98063.25
2023-01-18T14:16:23.294Z,98078.56
2023-01-18T14:18:28.317Z,98079.41
2023-01-18T14:20:48.248Z,98080.84
2023-01-18T14:23:27.569Z,98077.72
2023-01-18T14:25:32.523Z,98083.84
2023-01-18T14:27:40.424Z,98088.94
2023-01-18T14:30:12.632Z,98093.34
2023-01-18T14:32:27.676Z,98088.81
2023-01-18T14:34:30.282Z,98095.19
2023-01-18T14:36:36.410Z,98090.13
2023-01-18T14:38:40.311Z,98090.78
2023-01-18T14:40:44.084Z,98084.50
2023-01-18T14:43:00.055Z,98087.34
2023-01-18T14:45:05.006Z,98088.94
2023-01-18T14:47:23.972Z,98093.13
2023-01-18T14:49:37.784Z,98092.19
2023-01-18T14:51:48.966Z,98094.13
2023-01-18T14:54:06.185Z,98095.84
2023-01-18T14:56:14.520Z,98084.31
2023-01-18T14:58:18.722Z,98093.28
2023-01-18T15:00:21.745Z,98087.75
2023-01-18T15:02:27.904Z,98086.78
2023-01-18T15:04:34.153Z,98086.13
2023-01-18T15:06:44.638Z,98100.06
2023-01-18T15:08:48.173Z,98100.59
2023-01-18T15:10:50.209Z,98096.28
2023-01-18T15:12:56.970Z,98104.28
2023-01-18T15:15:06.895Z,98098.75
2023-01-18T15:17:12.233Z,98100.38
2023-01-18T15:19:36.993Z,98104.69
2023-01-18T15:21:39.166Z,98109.97
2023-01-18T15:23:43.619Z,98122.69
2023-01-18T15:25:53.806Z,98117.63
2023-01-18T15:28:01.971Z,98113.22
2023-01-18T15:30:13.562Z,98117.22
2023-01-18T15:32:22.084Z,98122.59
2023-01-18T15:34:31.129Z,98121.19
2023-01-18T15:36:33.696Z,98130.16
2023-01-18T15:38:36.661Z,98125.94
2023-01-18T15:40:52.255Z,98125.28
2023-01-18T15:43:09.496Z,98130.53
2023-01-18T15:45:31.977Z,98134.63
2023-01-18T15:47:36.995Z,98129.25
2023-01-18T15:49:44.015Z,98134.75
2023-01-18T15:51:53.212Z,98126.22
2023-01-18T15:53:56.648Z,98139.69
2023-01-18T15:56:04.995Z,98135.13
2023-01-18T15:58:13.539Z,98150.22
2023-01-18T16:00:30.479Z,98149.66
2023-01-18T16:02:33.392Z,98148.81
2023-01-18T16:04:40.692Z,98152.53
2023-01-18T16:06:45.666Z,98159.44
2023-01-18T16:09:12.750Z,98153.59
2023-01-18T16:11:41.518Z,98156.16
2023-01-18T16:13:44.032Z,98158.56
2023-01-18T16:16:09.571Z,98158.38
2023-01-18T16:18:14.479Z,98168.75
2023-01-18T16:20:17.411Z,98179.06
2023-01-18T16:22:26.443Z,98173.03
2023-01-18T16:24:47.052Z,98192.25
2023-01-18T16:26:49.480Z,98178.56
2023-01-18T16:28:52.095Z,98190.41
2023-01-18T16:30:55.195Z,98188.38
2023-01-18T16:33:10.280Z,98191.31
2023-01-18T16:35:23.960Z,98194.00
2023-01-18T16:37:26.250Z,98178.25
2023-01-18T16:39:28.618Z,98181.72
2023-01-18T16:41:32.383Z,98184.31
2023-01-18T16:43:35.738Z,98178.16
2023-01-18T16:45:39.092Z,98187.09
2023-01-18T16:47:41.346Z,98197.84
2023-01-18T16:49:44.383Z,98188.91
2023-01-18T16:51:48.185Z,98189.13
2023-01-18T16:53:51.094Z,98199.19
2023-01-18T16:55:53.134Z,98196.50
2023-01-18T16:57:55.292Z,98194.88
2023-01-18T16:59:57.532Z,98202.84
2023-01-18T17:01:59.902Z,98202.00
2023-01-18T17:04:02.792Z,98202.47
2023-01-18T17:06:05.193Z,98202.28
2023-01-18T17:08:14.314Z,98203.22
2023-01-18T17:10:26.500Z,98202.66
2023-01-18T17:12:28.658Z,98199.50
2023-01-18T17:14:30.894Z,98194.19
2023-01-18T17:16:34.136Z,98190.75
2023-01-18T17:18:36.534Z,98192.69
2023-01-18T17:20:38.474Z,98191.63
2023-01-18T17:22:40.826Z,98190.00
2023-01-18T17:24:43.606Z,98190.94
2023-01-18T17:26:48.886Z,98192.00
2023-01-18T17:28:50.989Z,98189.59
2023-01-18T17:30:53.477Z,98179.88
2023-01-18T17:32:55.815Z,98173.84
2023-01-18T17:34:58.297Z,98174.91
2023-01-18T17:37:03.038Z,98156.38
2023-01-18T17:39:06.558Z,98153.88
2023-01-18T17:41:19.552Z,98158.59
2023-01-18T17:43:34.238Z,98156.00
2023-01-18T17:45:36.712Z,98165.97
2023-01-18T17:47:41.355Z,98163.09
2023-01-18T17:49:43.475Z,98167.53
2023-01-18T17:51:46.089Z,98170.97
2023-01-18T17:53:50.709Z,98167.97
2023-01-18T17:55:52.882Z,98168.09
2023-01-18T17:57:56.448Z,98160.97
2023-01-18T17:59:58.652Z,98158.41
2023-01-18T18:02:00.743Z,98166.28
2023-01-18T18:04:03.038Z,98157.34
2023-01-18T18:06:06.088Z,98161.56
2023-01-18T18:08:09.142Z,98150.34
2023-01-18T18:10:11.555Z,98149.38
2023-01-18T18:12:14.149Z,98141.88
2023-01-18T18:14:19.283Z,98140.25
2023-01-18T18:16:23.941Z,98139.31
2023-01-18T18:18:26.451Z,98125.19
2023-01-18T18:20:28.690Z,98135.00
2023-01-18T18:22:37.395Z,98138.16
2023-01-18T18:24:39.811Z,98141.09
2023-01-18T18:26:41.907Z,98138.53
2023-01-18T18:28:44.201Z,98127.78
2023-01-18T18:30:49.062Z,98123.47
2023-01-18T18:32:51.151Z,98120.19
2023-01-18T18:34:53.076Z,98128.16
2023-01-18T18:36:55.622Z,98138.25
2023-01-18T18:39:01.848Z,98140.94
2023-01-18T18:41:06.417Z,98139.59
2023-01-18T18:43:09.313Z,98152.34
2023-01-18T18:45:12.071Z,98142.56
2023-01-18T18:47:14.203Z,98137.56
2023-01-18T18:49:16.485Z,98137.25
2023-01-18T18:51:19.450Z,98126.34
2023-01-18T18:53:29.651Z,98134.97
2023-01-18T18:55:39.475Z,98121.63
2023-01-18T18:57:41.830Z,98125.47
2023-01-18T18:59:43.908Z,98144.75
2023-01-18T19:01:46.330Z,98137.00
2023-01-18T19:03:49.589Z,98129.69
2023-01-18T19:05:52.098Z,98123.56
2023-01-18T19:07:54.523Z,98121.81
2023-01-18T19:09:56.669Z,98125.56
2023-01-18T19:12:01.315Z,98139.69
2023-01-18T19:14:03.516Z,98137.16
2023-01-18T19:16:06.726Z,98133.63
2023-01-18T19:18:08.807Z,98136.31
2023-01-18T19:20:14.079Z,98125.72
2023-01-18T19:22:16.389Z,98126.50
2023-01-18T19:24:18.764Z,98145.69
2023-01-18T19:26:20.964Z,98140.31
2023-01-18T19:28:23.434Z,98128.91
2023-01-18T19:30:26.056Z,98136.56
2023-01-18T19:32:28.876Z,98141.56
2023-01-18T19:34:31.090Z,98139.00
2023-01-18T19:36:34.373Z,98140.63
2023-01-18T19:38:45.767Z,98132.56
2023-01-18T19:40:48.967Z,98127.78
2023-01-18T19:42:54.733Z,98131.13
2023-01-18T19:44:59.323Z,98125.94
2023-01-18T19:47:02.166Z,98129.56
2023-01-18T19:49:04.858Z,98119.88
2023-01-18T19:51:22.151Z,98117.00
2023-01-18T19:53:24.738Z,98121.63
2023-01-18T19:55:27.624Z,98124.97
2023-01-18T19:57:30.051Z,98124.91
2023-01-18T19:59:32.193Z,98121.16
2023-01-18T20:01:37.149Z,98101.88
2023-01-18T20:03:40.239Z,98096.38
2023-01-18T20:05:44.715Z,98097.56
2023-01-18T20:07:47.103Z,98096.78
2023-01-18T20:09:49.407Z,98088.63
2023-01-18T20:11:51.671Z,98091.59
2023-01-18T20:13:53.865Z,98095.16
2023-01-18T20:15:56.222Z,98086.44
2023-01-18T20:18:01.672Z,98088.69
2023-01-18T20:20:08.375Z,98075.38
2023-01-18T20:22:10.987Z,98075.00
2023-01-18T20:24:13.000Z,98090.56
2023-01-18T20:26:22.134Z,98089.38
2023-01-18T20:28:29.822Z,98079.78
2023-01-18T20:30:32.428Z,98081.25
2023-01-18T20:32:34.698Z,98079.13
2023-01-18T20:34:37.161Z,98080.75
2023-01-18T20:36:39.408Z,98072.69
2023-01-18T20:38:42.313Z,98075.38
2023-01-18T20:40:44.357Z,98072.38
2023-01-18T20:42:46.746Z,98069.13
2023-01-18T20:44:53.840Z,98073.75
2023-01-18T20:46:57.521Z,98071.06
2023-01-18T20:48:59.738Z,98076.13
2023-01-18T20:51:01.940Z,98076.25
2023-01-18T20:53:04.232Z,98073.34
2023-01-18T20:55:07.062Z,98069.03
2023-01-18T20:57:09.763Z,98065.38
2023-01-18T20:59:12.522Z,98066.63
2023-01-18T21:01:15.768Z,98057.72
2023-01-18T21:03:18.329Z,98072.00
2023-01-18T21:05:20.596Z,98072.50
2023-01-18T21:07:22.862Z,98072.97
2023-01-18T21:09:25.819Z,98071.72
2023-01-18T21:11:31.876Z,98079.50
2023-01-18T21:13:34.075Z,98089.97
2023-01-18T21:15:38.183Z,98082.38
2023-01-18T21:17:40.130Z,98072.63
2023-01-18T21:19:47.774Z,98068.94
2023-01-18T21:21:49.784Z,98076.16
2023-01-18T21:23:51.805Z,98083.94
2023-01-18T21:25:58.668Z,98080.25
2023-01-18T21:28:01.212Z,98082.22
2023-01-18T21:30:03.775Z,98076.34
2023-01-18T21:32:06.089Z,98077.28
2023-01-18T21:34:08.482Z,98067.22
2023-01-18T21:36:16.174Z,98067.03
2023-01-18T21:38:19.260Z,98063.09
2023-01-18T21:40:21.269Z,98066.53
2023-01-18T21:42:42.174Z,98053.88
2023-01-18T21:45:02.753Z,98055.72
2023-01-18T21:47:04.838Z,98048.72
2023-01-18T21:49:07.090Z,98046.41
2023-01-18T21:51:28.353Z,98040.38
2023-01-18T21:53:48.984Z,98039.31
2023-01-18T21:55:52.313Z,98037.56
2023-01-18T21:58:13.154Z,98028.56
2023-01-18T22:00:15.593Z,98018.75
2023-01-18T22:02:17.849Z,98025.38
2023-01-18T22:04:38.478Z,98021.81
2023-01-18T22:06:40.545Z,98020.19
2023-01-18T22:08:42.616Z,98011.94
2023-01-18T22:10:47.798Z,98017.31
2023-01-18T22:12:49.953Z,98022.75
2023-01-18T22:14:51.930Z,98023.13
2023-01-18T22:16:54.063Z,98037.00
2023-01-18T22:18:56.247Z,98032.97
2023-01-18T22:20:58.581Z,98044.06
2023-01-18T22:23:00.610Z,98051.19
2023-01-18T22:25:02.785Z,98053.94
2023-01-18T22:27:05.815Z,98055.56
2023-01-18T22:29:08.694Z,98064.75
2023-01-18T22:31:10.843Z,98067.88
2023-01-18T22:33:13.133Z,98066.19
2023-01-18T22:35:15.211Z,98074.47
2023-01-18T22:37:17.627Z,98073.34
2023-01-18T22:39:19.495Z,98075.75
2023-01-18T22:41:25.076Z,98078.84
2023-01-18T22:43:27.237Z,98071.63
2023-01-18T22:45:30.079Z,98078.94
2023-01-18T22:47:32.169Z,98078.59
2023-01-18T22:49:34.188Z,98076.66
2023-01-18T22:51:38.867Z,98075.78
2023-01-18T22:53:40.950Z,98087.56
2023-01-18T22:55:45.129Z,98079.97
2023-01-18T22:57:48.896Z,98086.28
2023-01-18T22:59:50.988Z,98082.16
2023-01-18T23:01:53.125Z,98091.66
2023-01-18T23:03:57.420Z,98085.19
2023-01-18T23:06:00.853Z,98082.50
2023-01-18T23:08:04.629Z,98082.28
2023-01-18T23:10:06.974Z,98079.59
2023-01-18T23:12:10.132Z,98075.28
2023-01-18T23:14:30.657Z,98072.22
2023-01-18T23:16:51.842Z,98072.22
2023-01-18T23:18:53.869Z,98066.75
2023-01-18T23:21:00.556Z,98052.53
2023-01-18T23:23:02.579Z,98054.06
2023-01-18T23:25:05.180Z,98051.75
2023-01-18T23:27:12.085Z,98046.13
2023-01-18T23:29:14.426Z,98051.16
2023-01-18T23:31:18.681Z,98034.69
2023-01-18T23:33:22.533Z,98040.91
2023-01-18T23:35:24.661Z,98037.59
2023-01-18T23:37:27.305Z,98035.09
2023-01-18T23:39:47.893Z,98046.72
2023-01-18T23:42:08.500Z,98051.63
2023-01-18T23:44:29.287Z,98053.47
2023-01-18T23:46:50.045Z,98040.56
2023-01-18T23:49:10.759Z,98042.88
2023-01-18T23:51:31.545Z,98031.66
2023-01-18T23:53:52.410Z,98018.75
2023-01-18T23:55:54.519Z,98011.97
2023-01-18T23:57:56.530Z,98019.69
2023-01-18T23:59:58.766Z,98019.81
